Date,TemperatureHighF,TemperatureAvgF,TemperatureLowF,DewpointHighF,DewpointAvgF,DewpointLowF,HumidityHigh,HumidityAvg,HumidityLow,PressureMaxIn,PressureMinIn,WindSpeedMaxMPH,WindSpeedAvgMPH,GustSpeedMaxMPH,PrecipitationSumIn
2013-1-1,29,25,13,25,19,9,92,80,72,30.19,30.08,11,2,13,0.00
2013-1-2,28,17,11,18,10,6,85,75,63,30.26,30.18,13,2,14,0.00
2013-1-3,30,24,14,26,20,8,90,83,76,30.28,30.15,13,3,15,0.00
2013-1-4,32,23,14,25,18,11,90,84,72,30.28,30.18,14,4,14,0.01
2013-1-5,34,28,18,32,25,17,96,89,78,30.30,30.01,14,3,15,0.00
2013-1-6,35,31,24,32,27,21,92,87,81,30.35,29.94,18,4,18,0.00
2013-1-7,36,26,17,28,22,15,95,86,67,30.39,30.17,18,4,22,0.01
2013-1-8,39,31,24,32,27,22,93,86,74,30.24,30.10,14,3,14,0.00
2013-1-9,49,40,27,35,29,21,88,69,38,30.52,30.08,18,4,24,0.00
2013-1-10,42,33,24,40,29,22,98,85,65,30.53,29.99,17,3,21,0.37
2013-1-11,52,48,40,52,47,40,99,96,91,29.99,29.72,16,5,20,0.53
2013-1-12,57,48,36,51,44,34,95,86,61,29.95,29.79,12,3,14,0.26
2013-1-13,36,30,17,35,28,13,97,93,85,30.26,29.83,16,4,17,0.10
2013-1-14,24,19,14,20,15,11,91,85,77,30.50,30.25,10,2,12,0.00
2013-1-15,33,21,12,25,17,11,95,86,66,30.47,30.15,9,0,11,0.01
2013-1-16,36,28,17,28,23,16,95,81,57,30.15,29.89,17,4,22,0.00
2013-1-17,33,28,20,30,20,13,89,72,60,30.42,30.07,19,3,19,0.00
2013-1-18,39,29,18,29,22,13,89,76,63,30.45,30.00,21,5,27,0.00
2013-1-19,48,41,34,37,33,22,83,73,54,30.01,29.76,40,7,40,0.00
2013-1-20,36,20,17,24,10,6,80,65,46,30.29,29.84,32,7,39,0.00
2013-1-21,17,12,7,9,4,-2,87,69,58,30.28,30.15,27,8,27,0.00
2013-1-22,13,7,2,2,0,-2,86,72,53,30.42,30.28,17,4,18,0.00
2013-1-23,21,15,8,16,8,0,89,72,62,30.39,30.14,24,4,26,0.00
2013-1-24,21,16,12,14,10,7,91,76,56,30.66,30.28,11,1,17,0.09
2013-1-25,26,21,17,22,17,10,90,82,70,30.45,30.03,23,2,24,0.00
2013-1-26,26,23,17,21,18,14,92,81,71,30.47,30.15,16,3,17,0.00
2013-1-27,34,27,20,33,24,17,96,86,76,30.45,30.01,21,5,24,0.00
2013-1-28,49,42,34,48,42,34,99,99,97,30.02,29.88,11,2,13,0.23
2013-1-29,57,54,40,57,54,40,100,99,94,29.92,29.38,23,6,25,1.07
2013-1-30,53,39,24,53,38,20,100,96,85,29.57,29.16,30,5,33,0.30
2013-1-31,24,16,9,21,12,7,92,84,70,30.14,29.57,24,8,24,0.00